Time;durP1;ratioP1;P1;durP2;ratioP2;P2;SDS_P1;SDS_P2;PMS_P1;PMS_P2;Temp;Humidity;BMP_temperature;BMP_pressure;BME280_temperature;BME280_humidity;BME280_pressure;Samples;Min_cycle;Max_cycle;Signal;HPM_P1;HPM_P2
2022/12/10 00:01:18;;;;;;;98.03;23.65;;;2.70;99.90;;;;;;5045426;28;20061;-68
2022/12/10 00:03:45;;;;;;;82.25;21.30;;;2.70;99.90;;;;;;5068424;28;20036;-67
2022/12/10 00:06:14;;;;;;;112.45;23.05;;;2.70;99.90;;;;;;5053242;28;20029;-68
2022/12/10 00:08:40;;;;;;;117.57;23.42;;;2.70;99.90;;;;;;5058699;28;20024;-69
2022/12/10 00:11:10;;;;;;;115.18;26.23;;;2.70;99.90;;;;;;5059615;28;20475;-67
2022/12/10 00:13:36;;;;;;;100.50;23.48;;;2.70;99.90;;;;;;5062394;28;20140;-67
2022/12/10 00:16:05;;;;;;;141.35;26.63;;;2.70;99.90;;;;;;5053782;28;20044;-68
2022/12/10 00:18:31;;;;;;;115.55;22.88;;;2.70;99.90;;;;;;5057751;28;20021;-67
2022/12/10 00:20:56;;;;;;;125.75;25.80;;;2.70;99.90;;;;;;5057133;28;20063;-67
2022/12/10 00:23:22;;;;;;;126.47;26.08;;;2.70;99.90;;;;;;5065222;28;20058;-69
2022/12/10 00:25:48;;;;;;;157.77;22.63;;;2.70;99.90;;;;;;5054040;28;20483;-67
2022/12/10 00:28:17;;;;;;;115.38;25.35;;;2.80;99.90;;;;;;5061029;28;20111;-67
2022/12/10 00:30:42;;;;;;;102.10;18.92;;;2.70;99.90;;;;;;5056460;28;20035;-67
2022/12/10 00:33:08;;;;;;;92.38;17.90;;;2.70;99.90;;;;;;5063418;28;20040;-67
2022/12/10 00:35:37;;;;;;;104.57;17.60;;;2.70;99.90;;;;;;5036444;28;20047;-67
2022/12/10 00:38:03;;;;;;;117.13;18.75;;;2.60;99.90;;;;;;5068351;28;20460;-69
2022/12/10 00:40:28;;;;;;;162.40;22.70;;;2.60;99.90;;;;;;5049953;28;20068;-67
2022/12/10 00:42:54;;;;;;;133.05;19.88;;;2.60;99.90;;;;;;5054645;28;20068;-67
2022/12/10 00:45:20;;;;;;;135.45;20.48;;;2.60;99.90;;;;;;5059304;28;20029;-67
2022/12/10 00:47:45;;;;;;;119.25;19.17;;;2.50;99.90;;;;;;5067582;28;20411;-68
2022/12/10 00:50:11;;;;;;;106.47;19.27;;;2.50;99.90;;;;;;5049445;28;20033;-67
2022/12/10 00:52:36;;;;;;;102.88;17.77;;;2.50;99.90;;;;;;5040712;28;20021;-68
2022/12/10 00:55:02;;;;;;;111.53;17.88;;;2.40;99.90;;;;;;5025819;28;20120;-67
2022/12/10 00:57:29;;;;;;;47.65;11.15;;;2.30;99.90;;;;;;5025360;28;20076;-68
2022/12/10 00:59:55;;;;;;;126.88;19.48;;;2.30;99.90;;;;;;5044393;28;20440;-68
2022/12/10 01:02:20;;;;;;;164.80;22.17;;;2.30;99.90;;;;;;5040235;28;20052;-68
2022/12/10 01:04:46;;;;;;;112.00;17.35;;;2.20;99.90;;;;;;5043370;28;20052;-67
2022/12/10 01:07:13;;;;;;;88.85;16.10;;;2.20;99.90;;;;;;5044497;28;20029;-67
2022/12/10 01:09:39;;;;;;;147.35;20.85;;;2.10;99.90;;;;;;5037734;28;20067;-67
2022/12/10 01:12:05;;;;;;;120.38;22.17;;;2.10;99.90;;;;;;5048008;28;20037;-70
2022/12/10 01:14:33;;;;;;;117.15;20.05;;;2.20;99.90;;;;;;5045775;28;20047;-69
2022/12/10 01:17:04;;;;;;;124.85;21.77;;;2.10;99.90;;;;;;5049330;28;20061;-67
2022/12/10 01:19:31;;;;;;;;;;;2.10;99.90;;;;;;5044843;28;20014;-68
2022/12/10 01:21:57;;;;;;;111.95;20.75;;;2.10;99.90;;;;;;5046499;28;19912;-69
2022/12/10 01:24:25;;;;;;;110.85;18.95;;;2.00;99.90;;;;;;5051083;28;20491;-68
2022/12/10 01:26:51;;;;;;;76.70;16.70;;;2.00;99.90;;;;;;5047695;28;20036;-67
2022/12/10 01:29:17;;;;;;;133.30;23.23;;;2.00;99.90;;;;;;5048834;28;20133;-68
2022/12/10 01:31:43;;;;;;;95.03;19.92;;;2.00;99.90;;;;;;5045793;28;20037;-70
2022/12/10 01:34:12;;;;;;;78.70;18.60;;;2.10;99.90;;;;;;5050913;28;20041;-69
2022/12/10 01:36:43;;;;;;;90.10;20.25;;;2.10;99.90;;;;;;5048567;28;20033;-68
2022/12/10 01:39:11;;;;;;;114.65;21.20;;;2.10;99.90;;;;;;5029757;28;20120;-68
2022/12/10 01:41:43;;;;;;;79.68;18.13;;;2.10;99.90;;;;;;5044982;28;20043;-68
2022/12/10 01:44:08;;;;;;;99.82;19.55;;;2.20;99.90;;;;;;5049357;28;20281;-70
2022/12/10 01:46:39;;;;;;;92.15;20.90;;;2.20;99.90;;;;;;5047091;28;20103;-68
2022/12/10 01:49:08;;;;;;;96.17;21.03;;;2.20;99.90;;;;;;5039266;28;20524;-67
2022/12/10 01:51:36;;;;;;;71.93;19.48;;;2.30;99.90;;;;;;5049612;28;20033;-68
2022/12/10 01:54:05;;;;;;;78.15;19.33;;;2.30;99.90;;;;;;5054761;28;20033;-68
2022/12/10 01:56:33;;;;;;;76.47;19.45;;;2.20;99.90;;;;;;5059606;28;20143;-68
2022/12/10 01:58:59;;;;;;;77.43;19.35;;;2.20;99.90;;;;;;5063513;28;20060;-68
2022/12/10 02:01:50;;;;;;;70.65;17.20;;;2.20;99.90;;;;;;5054158;28;20053;-69
2022/12/10 02:04:46;;;;;;;74.63;21.08;;;2.10;99.90;;;;;;5053531;28;20029;-68
2022/12/10 02:07:37;;;;;;;67.78;20.50;;;2.00;99.90;;;;;;5065900;28;20037;-69
2022/12/10 02:10:32;;;;;;;78.77;22.20;;;2.00;99.90;;;;;;5049509;28;20034;-69
2022/12/10 02:13:06;;;;;;;75.28;21.88;;;2.10;99.90;;;;;;5058468;28;20029;-69
2022/12/10 02:15:37;;;;;;;67.38;20.80;;;2.10;99.90;;;;;;5051256;28;20483;-68
2022/12/10 02:18:20;;;;;;;85.13;24.23;;;2.20;99.90;;;;;;5070584;28;20032;-69
2022/12/10 02:20:51;;;;;;;98.38;25.27;;;2.20;99.90;;;;;;5057120;28;20115;-68
2022/12/10 02:23:26;;;;;;;143.18;28.83;;;2.30;99.90;;;;;;5066411;28;20029;-68
2022/12/10 02:26:04;;;;;;;95.45;24.00;;;2.30;99.90;;;;;;5044490;28;20554;-68
2022/12/10 02:28:54;;;;;;;78.93;23.58;;;2.40;99.90;;;;;;5048070;28;20107;-68
2022/12/10 02:31:25;;;;;;;96.82;26.30;;;2.50;99.90;;;;;;5059406;28;20526;-68
2022/12/10 02:33:56;;;;;;;97.28;26.90;;;2.50;99.90;;;;;;5051803;28;20045;-67
2022/12/10 02:36:25;;;;;;;105.17;27.50;;;2.60;99.90;;;;;;5069079;28;20041;-68
2022/12/10 02:38:52;;;;;;;105.13;28.48;;;2.60;99.90;;;;;;5051555;28;20044;-68
2022/12/10 02:41:26;;;;;;;111.10;29.98;;;2.70;99.90;;;;;;5050681;28;20452;-68
2022/12/10 02:43:54;;;;;;;145.70;29.00;;;2.70;99.90;;;;;;5060895;28;20029;-68
2022/12/10 02:46:22;;;;;;;138.70;31.67;;;2.70;99.90;;;;;;5058080;28;20043;-70
2022/12/10 02:48:49;;;;;;;140.65;30.50;;;2.80;99.90;;;;;;5061514;28;20029;-67
2022/12/10 02:51:15;;;;;;;123.70;26.92;;;2.80;99.90;;;;;;5054691;28;20029;-67
2022/12/10 02:53:42;;;;;;;126.07;27.67;;;2.90;99.90;;;;;;5059910;28;20037;-70
2022/12/10 02:56:20;;;;;;;161.50;29.70;;;2.80;99.90;;;;;;5068359;28;20068;-68
2022/12/10 02:58:57;;;;;;;177.45;32.50;;;2.80;99.90;;;;;;5053991;28;20657;-67
2022/12/10 03:01:37;;;;;;;148.18;30.50;;;2.80;99.90;;;;;;5051263;28;20064;-68
2022/12/10 03:04:13;;;;;;;115.80;28.15;;;2.80;99.90;;;;;;5069612;28;20021;-68
2022/12/10 03:07:02;;;;;;;152.10;32.78;;;2.70;99.90;;;;;;5052230;28;20037;-68
2022/12/10 03:10:03;;;;;;;169.70;32.25;;;2.70;99.90;;;;;;5057110;28;20027;-69
2022/12/10 03:12:35;;;;;;;112.07;23.45;;;2.70;99.90;;;;;;4997750;28;20049;-68
2022/12/10 03:15:04;;;;;;;160.98;31.42;;;2.70;99.90;;;;;;5053666;28;20051;-68
2022/12/10 03:17:32;;;;;;;151.15;31.35;;;2.50;99.90;;;;;;5039432;28;20034;-69
2022/12/10 03:19:59;;;;;;;169.32;32.22;;;2.50;99.90;;;;;;5044901;28;20047;-68
2022/12/10 03:22:26;;;;;;;123.30;26.08;;;2.50;99.90;;;;;;5048252;28;20419;-68
2022/12/10 03:24:51;;;;;;;137.68;28.63;;;2.50;99.90;;;;;;5052600;28;20528;-68
2022/12/10 03:27:20;;;;;;;173.00;33.33;;;2.40;99.90;;;;;;5052936;28;20033;-68
2022/12/10 03:29:50;;;;;;;119.43;25.42;;;2.40;99.90;;;;;;5050136;28;20425;-68
2022/12/10 03:32:16;;;;;;;83.78;21.40;;;2.30;99.90;;;;;;5041108;28;20037;-68
2022/12/10 03:34:43;;;;;;;154.80;26.77;;;2.30;99.90;;;;;;5065906;28;20040;-68
2022/12/10 03:37:10;;;;;;;130.48;28.55;;;2.30;99.90;;;;;;5045361;28;20072;-67
2022/12/10 03:39:37;;;;;;;121.60;24.35;;;2.20;99.90;;;;;;5061949;28;20025;-68
2022/12/10 03:42:04;;;;;;;181.73;32.90;;;2.20;99.90;;;;;;5051636;28;20104;-68
2022/12/10 03:44:35;;;;;;;144.75;30.35;;;2.20;99.90;;;;;;5063644;28;20017;-68
2022/12/10 03:47:02;;;;;;;97.30;24.13;;;2.20;99.90;;;;;;5067466;28;20537;-68
2022/12/10 03:49:28;;;;;;;134.57;30.30;;;2.20;99.90;;;;;;5056588;28;20112;-68
2022/12/10 03:51:53;;;;;;;94.55;24.05;;;2.20;99.90;;;;;;5049796;28;20125;-68
2022/12/10 03:54:19;;;;;;;112.83;27.60;;;2.20;99.90;;;;;;5063767;28;20033;-68
2022/12/10 03:56:45;;;;;;;142.13;28.08;;;2.30;99.90;;;;;;5063832;28;20083;-68
2022/12/10 03:59:11;;;;;;;151.30;31.30;;;2.30;99.90;;;;;;5065789;28;20029;-68
2022/12/10 04:01:37;;;;;;;168.98;34.05;;;2.30;99.90;;;;;;5043937;28;20055;-68
2022/12/10 04:04:06;;;;;;;104.43;26.42;;;2.30;99.90;;;;;;5065490;28;20052;-67
2022/12/10 04:06:32;;;;;;;110.45;24.67;;;2.30;99.90;;;;;;5054746;28;20021;-68
2022/12/10 04:08:57;;;;;;;143.82;26.38;;;2.20;99.90;;;;;;5067263;28;20361;-68
2022/12/10 04:11:23;;;;;;;126.00;29.42;;;2.20;99.90;;;;;;5045381;28;20028;-68
2022/12/10 04:16:34;;;;;;;111.93;26.15;;;2.20;99.90;;;;;;5066302;28;20051;-68
2022/12/10 04:19:06;;;;;;;139.48;27.80;;;2.20;99.90;;;;;;5056780;28;20063;-68
2022/12/10 04:27:09;;;;;;;91.20;22.30;;;2.20;99.90;;;;;;5043809;28;20502;-68
2022/12/10 04:29:34;;;;;;;144.30;30.00;;;2.20;99.90;;;;;;5041560;28;20047;-68
2022/12/10 04:32:00;;;;;;;114.47;25.27;;;2.10;99.90;;;;;;5050513;28;20442;-68
2022/12/10 04:34:26;;;;;;;89.65;20.83;;;2.20;99.90;;;;;;5066793;28;20020;-68
2022/12/10 04:36:52;;;;;;;103.15;25.25;;;2.20;99.90;;;;;;5067918;28;20025;-68
2022/12/10 04:39:17;;;;;;;92.40;21.52;;;2.20;99.90;;;;;;5053509;28;20028;-68
2022/12/10 04:41:48;;;;;;;62.17;16.30;;;2.10;99.90;;;;;;5052188;28;20456;-67
2022/12/10 04:44:14;;;;;;;79.93;19.65;;;2.10;99.90;;;;;;5051947;28;20021;-68
2022/12/10 04:46:39;;;;;;;120.57;25.77;;;2.00;99.90;;;;;;5052639;28;20075;-68
2022/12/10 04:49:06;;;;;;;84.75;20.23;;;2.00;99.90;;;;;;5054551;28;20596;-67
2022/12/10 04:51:31;;;;;;;112.80;23.67;;;2.00;99.90;;;;;;5055315;28;20460;-67
2022/12/10 04:53:57;;;;;;;112.90;25.42;;;2.00;99.90;;;;;;5046067;28;20032;-68
2022/12/10 04:56:23;;;;;;;126.32;27.85;;;2.00;99.90;;;;;;5055210;28;20040;-67
2022/12/10 04:58:49;;;;;;;128.70;27.58;;;2.00;99.90;;;;;;5047084;28;20040;-68
2022/12/10 05:01:14;;;;;;;177.63;29.70;;;2.10;99.90;;;;;;5052420;28;20152;-68
2022/12/10 05:03:41;;;;;;;111.68;25.50;;;2.10;99.90;;;;;;5055433;28;20027;-68
2022/12/10 05:06:09;;;;;;;123.50;26.20;;;2.10;99.90;;;;;;5055532;28;20079;-68
2022/12/10 05:08:36;;;;;;;103.82;29.10;;;2.10;99.90;;;;;;5049337;28;20029;-68
2022/12/10 05:11:07;;;;;;;103.93;24.02;;;2.10;99.90;;;;;;5049484;28;20036;-68
2022/12/10 05:13:33;;;;;;;128.73;26.52;;;2.10;99.90;;;;;;5054306;28;20425;-68
2022/12/10 05:16:02;;;;;;;81.30;23.15;;;2.00;99.90;;;;;;5055702;28;20120;-68
2022/12/10 05:18:28;;;;;;;84.22;20.98;;;2.00;99.90;;;;;;5036150;28;20025;-68
2022/12/10 05:20:53;;;;;;;104.95;24.00;;;2.00;99.90;;;;;;5050803;28;20380;-67
2022/12/10 05:23:27;;;;;;;117.13;26.27;;;2.00;99.90;;;;;;5046985;28;20037;-68
2022/12/10 05:26:12;;;;;;;112.78;27.00;;;2.00;99.90;;;;;;5048489;28;20076;-68
2022/12/10 05:28:40;;;;;;;107.05;27.38;;;2.00;99.90;;;;;;5045563;28;20029;-68
2022/12/10 05:31:14;;;;;;;91.32;19.13;;;2.10;99.90;;;;;;5045862;28;20112;-68
2022/12/10 05:33:40;;;;;;;92.45;28.70;;;2.00;99.90;;;;;;5049010;28;20063;-67
2022/12/10 05:36:07;;;;;;;105.32;27.98;;;2.00;99.90;;;;;;5055266;28;20134;-68
2022/12/10 05:38:33;;;;;;;111.65;23.67;;;2.00;99.90;;;;;;5054258;28;20056;-68
2022/12/10 05:41:08;;;;;;;157.07;30.27;;;2.00;99.90;;;;;;5053239;28;20048;-68
2022/12/10 05:43:34;;;;;;;73.93;21.70;;;2.00;99.90;;;;;;5050730;28;20120;-68
2022/12/10 05:46:02;;;;;;;359.05;48.50;;;2.00;99.90;;;;;;5051586;28;20033;-68
2022/12/10 05:48:28;;;;;;;106.35;25.00;;;2.10;99.90;;;;;;5052253;28;20491;-68
2022/12/10 05:50:53;;;;;;;120.28;27.38;;;2.10;99.90;;;;;;5053851;28;20033;-68
2022/12/10 05:53:19;;;;;;;121.75;25.73;;;2.10;99.90;;;;;;5048993;28;20124;-68
2022/12/10 05:55:44;;;;;;;129.65;25.17;;;2.10;99.90;;;;;;5037000;28;20037;-68
2022/12/10 05:58:10;;;;;;;63.00;18.05;;;2.10;99.90;;;;;;5028553;28;20029;-68
2022/12/10 06:00:39;;;;;;;82.22;22.02;;;2.10;99.90;;;;;;5041834;28;20021;-68
2022/12/10 06:03:04;;;;;;;47.35;16.05;;;2.10;99.90;;;;;;5039164;28;20087;-68
2022/12/10 06:05:39;;;;;;;89.70;23.30;;;2.00;99.90;;;;;;5054718;28;20079;-68
2022/12/10 06:08:05;;;;;;;72.18;19.10;;;1.90;99.90;;;;;;5053027;28;20036;-68
2022/12/10 06:10:30;;;;;;;108.97;27.33;;;1.90;99.90;;;;;;5035718;28;20388;-68
2022/12/10 06:12:56;;;;;;;96.43;23.27;;;1.90;99.90;;;;;;5053116;28;20055;-67
2022/12/10 06:15:22;;;;;;;60.85;18.17;;;1.90;99.90;;;;;;5053425;28;20036;-68
2022/12/10 06:17:47;;;;;;;106.78;23.02;;;1.80;99.90;;;;;;5052961;28;20025;-68
2022/12/10 06:20:13;;;;;;;170.77;29.95;;;1.80;99.90;;;;;;5053884;28;20021;-67
2022/12/10 06:22:38;;;;;;;137.77;23.95;;;1.80;99.90;;;;;;5054190;28;20041;-68
2022/12/10 06:25:06;;;;;;;93.82;24.60;;;1.80;99.90;;;;;;5052840;28;20052;-68
2022/12/10 06:27:32;;;;;;;96.60;22.50;;;1.80;99.90;;;;;;5053843;28;20533;-68
2022/12/10 06:29:57;;;;;;;101.70;22.75;;;1.80;99.90;;;;;;5053573;28;20055;-68
2022/12/10 06:32:23;;;;;;;109.68;24.52;;;1.80;99.90;;;;;;5044855;28;20033;-68
2022/12/10 06:34:49;;;;;;;80.60;23.75;;;1.90;99.90;;;;;;5034766;28;20045;-67
2022/12/10 06:37:14;;;;;;;87.85;23.92;;;1.90;99.90;;;;;;5048852;28;20037;-67
2022/12/10 06:39:40;;;;;;;97.68;22.20;;;1.80;99.90;;;;;;5037662;28;20128;-67
2022/12/10 06:42:05;;;;;;;98.40;22.85;;;1.80;99.90;;;;;;5050686;28;20071;-68
2022/12/10 06:44:31;;;;;;;87.40;21.50;;;1.80;99.90;;;;;;5034398;28;20033;-68
2022/12/10 06:46:57;;;;;;;72.20;20.10;;;1.70;99.90;;;;;;5048165;28;20374;-68
2022/12/10 06:49:22;;;;;;;139.98;24.52;;;1.80;99.90;;;;;;5052090;28;20025;-67
2022/12/10 06:51:48;;;;;;;102.78;25.60;;;1.70;99.90;;;;;;5053158;28;20033;-67
2022/12/10 06:54:14;;;;;;;144.00;26.55;;;1.60;99.90;;;;;;5053482;28;20465;-68
2022/12/10 06:56:39;;;;;;;49.78;13.68;;;1.60;99.90;;;;;;5052486;28;20155;-68
2022/12/10 06:59:06;;;;;;;70.18;18.95;;;1.60;99.90;;;;;;5051538;28;20033;-68
2022/12/10 07:01:31;;;;;;;110.10;22.52;;;1.50;99.90;;;;;;5049701;28;20021;-68
2022/12/10 07:03:57;;;;;;;91.70;21.50;;;1.40;99.90;;;;;;5054012;28;20020;-68
2022/12/10 07:06:25;;;;;;;239.80;31.67;;;1.50;99.90;;;;;;5052501;28;20040;-68
2022/12/10 07:08:51;;;;;;;88.72;22.42;;;1.50;99.90;;;;;;5034713;28;20465;-67
2022/12/10 07:11:19;;;;;;;112.05;24.92;;;1.50;99.90;;;;;;5030029;28;20119;-68
2022/12/10 07:13:45;;;;;;;95.32;24.15;;;1.50;99.90;;;;;;5053007;28;20068;-68
2022/12/10 07:16:26;;;;;;;108.78;24.02;;;1.50;99.90;;;;;;5052491;28;20084;-68
2022/12/10 07:18:52;;;;;;;91.95;24.38;;;1.50;99.90;;;;;;5053269;28;20392;-68
2022/12/10 07:21:24;;;;;;;78.22;16.20;;;1.50;99.90;;;;;;5050194;28;20045;-68
2022/12/10 07:23:50;;;;;;;54.88;14.90;;;1.60;99.90;;;;;;5053289;28;20027;-68
2022/12/10 07:26:16;;;;;;;44.13;12.63;;;1.50;99.90;;;;;;5052652;28;20063;-68
2022/12/10 07:28:42;;;;;;;83.85;20.25;;;1.50;99.90;;;;;;5050795;28;20037;-68
2022/12/10 07:31:09;;;;;;;130.38;22.35;;;1.40;99.90;;;;;;5030240;28;20137;-68
2022/12/10 07:33:36;;;;;;;75.53;17.75;;;1.40;99.90;;;;;;5035383;28;20021;-68
2022/12/10 07:36:06;;;;;;;63.22;17.67;;;1.40;99.90;;;;;;5050245;28;20045;-68
2022/12/10 07:38:32;;;;;;;33.33;12.02;;;1.30;99.90;;;;;;5032508;28;20420;-69
2022/12/10 07:40:57;;;;;;;81.28;17.98;;;1.30;99.90;;;;;;5047721;28;20520;-68
2022/12/10 07:43:23;;;;;;;124.07;22.13;;;1.30;99.90;;;;;;5052495;28;20039;-68
2022/12/10 07:45:48;;;;;;;151.00;25.48;;;1.30;99.90;;;;;;5052760;28;20029;-68
2022/12/10 07:48:14;;;;;;;94.88;20.52;;;1.40;99.90;;;;;;5061091;28;20472;-68
2022/12/10 07:50:40;;;;;;;127.53;20.58;;;1.40;99.90;;;;;;5055534;28;20113;-67
2022/12/10 07:53:06;;;;;;;114.57;23.88;;;1.40;99.90;;;;;;5046391;28;20380;-68
2022/12/10 07:55:31;;;;;;;47.78;12.98;;;1.40;99.90;;;;;;5054737;28;20040;-68
2022/12/10 07:57:57;;;;;;;133.50;24.73;;;1.40;99.90;;;;;;5055984;28;20075;-68
2022/12/10 08:00:22;;;;;;;126.38;21.90;;;1.40;99.90;;;;;;5061938;28;20477;-68
2022/12/10 08:02:48;;;;;;;97.70;18.42;;;1.40;99.90;;;;;;5048669;28;20057;-68
2022/12/10 08:05:16;;;;;;;110.18;17.40;;;1.40;99.90;;;;;;5054546;28;20166;-68
2022/12/10 08:07:41;;;;;;;134.95;23.15;;;1.40;99.90;;;;;;5059723;28;20037;-68
2022/12/10 08:10:11;;;;;;;66.75;16.10;;;1.40;99.90;;;;;;5057925;28;20036;-68
2022/12/10 08:12:42;;;;;;;96.88;22.10;;;1.40;99.90;;;;;;5049176;28;20025;-69
2022/12/10 08:15:08;;;;;;;106.20;23.45;;;1.40;99.90;;;;;;5050193;28;20063;-68
2022/12/10 08:17:35;;;;;;;136.40;21.48;;;1.40;99.90;;;;;;5052521;28;20044;-68
2022/12/10 08:20:00;;;;;;;81.60;20.38;;;1.40;99.90;;;;;;5045904;28;20037;-68
2022/12/10 08:22:26;;;;;;;107.93;23.77;;;1.50;99.90;;;;;;5046834;28;20391;-68
2022/12/10 08:24:51;;;;;;;84.45;21.55;;;1.50;99.90;;;;;;5048783;28;20083;-68
2022/12/10 08:27:17;;;;;;;112.88;22.27;;;1.50;99.90;;;;;;5051618;28;20040;-68
2022/12/10 08:29:43;;;;;;;78.45;19.20;;;1.50;99.90;;;;;;5046927;28;20029;-68
2022/12/10 08:32:08;;;;;;;124.32;23.63;;;1.60;99.90;;;;;;5049699;28;20373;-68
2022/12/10 08:34:34;;;;;;;144.52;24.15;;;1.60;99.90;;;;;;5049392;28;20025;-68
2022/12/10 08:36:59;;;;;;;41.10;13.10;;;1.60;99.90;;;;;;5052020;28;20036;-68
2022/12/10 08:39:25;;;;;;;98.22;19.52;;;1.50;99.90;;;;;;5047388;28;20473;-68
2022/12/10 08:41:50;;;;;;;64.93;15.63;;;1.50;99.90;;;;;;5049623;28;20021;-68
2022/12/10 08:44:19;;;;;;;105.25;22.50;;;1.50;99.90;;;;;;5047107;28;20032;-68
2022/12/10 08:46:45;;;;;;;76.50;20.73;;;1.50;99.90;;;;;;5048659;28;20049;-68
2022/12/10 08:49:10;;;;;;;326.17;45.60;;;1.60;99.90;;;;;;5048443;28;20107;-68
2022/12/10 08:51:36;;;;;;;126.18;24.73;;;1.60;99.90;;;;;;5054684;28;20025;-68
2022/12/10 08:54:02;;;;;;;64.50;16.17;;;1.80;99.90;;;;;;5042390;28;20041;-69
2022/12/10 08:56:28;;;;;;;89.93;20.92;;;1.80;99.90;;;;;;5053520;28;20112;-68
2022/12/10 08:58:53;;;;;;;98.28;21.27;;;1.80;99.90;;;;;;5063105;28;20024;-68
2022/12/10 09:01:19;;;;;;;211.73;28.83;;;1.90;99.90;;;;;;5049993;28;20029;-68
2022/12/10 09:03:45;;;;;;;91.60;20.77;;;1.90;99.90;;;;;;5065825;28;20529;-68
2022/12/10 09:06:17;;;;;;;159.90;25.88;;;1.90;99.90;;;;;;5064460;28;20037;-68
2022/12/10 09:08:43;;;;;;;98.15;23.92;;;2.00;99.90;;;;;;5050818;28;20029;-68
2022/12/10 09:11:21;;;;;;;278.77;41.10;;;2.10;99.90;;;;;;5056173;28;20020;-68
2022/12/10 09:13:47;;;;;;;125.38;27.33;;;2.10;99.90;;;;;;5056641;28;20112;-68
2022/12/10 09:16:13;;;;;;;80.25;17.88;;;2.10;99.90;;;;;;5045410;28;20124;-68
2022/12/10 09:18:38;;;;;;;103.43;22.00;;;2.10;99.90;;;;;;5050737;28;20021;-68
2022/12/10 09:21:06;;;;;;;94.40;22.13;;;2.10;99.90;;;;;;5050951;28;20112;-68
2022/12/10 09:23:32;;;;;;;85.70;19.15;;;2.10;99.90;;;;;;5047965;28;20025;-68
2022/12/10 09:25:57;;;;;;;111.97;24.88;;;2.00;99.90;;;;;;5032705;28;20069;-68
2022/12/10 09:28:23;;;;;;;85.30;23.42;;;2.00;99.90;;;;;;5048886;28;20404;-70
2022/12/10 09:30:58;;;;;;;110.50;24.52;;;2.00;99.90;;;;;;5050211;28;20407;-68
2022/12/10 09:33:25;;;;;;;99.93;20.40;;;2.10;99.90;;;;;;5053468;28;20071;-68
2022/12/10 09:35:51;;;;;;;66.65;17.20;;;2.20;99.90;;;;;;5053768;28;20033;-68
2022/12/10 09:38:17;;;;;;;117.95;25.98;;;2.30;99.90;;;;;;5064126;28;20035;-68
2022/12/10 09:40:59;;;;;;;83.63;19.58;;;2.20;99.90;;;;;;5064267;28;20036;-68
2022/12/10 09:43:58;;;;;;;90.85;22.75;;;2.20;99.90;;;;;;5047672;28;20028;-68
2022/12/10 09:46:35;;;;;;;63.03;15.23;;;2.20;99.90;;;;;;5045490;28;20048;-68
2022/12/10 09:49:12;;;;;;;97.10;20.83;;;2.20;99.90;;;;;;5065895;28;20033;-68
2022/12/10 09:51:38;;;;;;;80.43;19.90;;;2.30;99.90;;;;;;5055377;28;20063;-68
2022/12/10 09:54:24;;;;;;;94.45;19.95;;;2.30;99.90;;;;;;5063949;28;20433;-68
2022/12/10 09:56:52;;;;;;;88.38;20.40;;;2.30;99.90;;;;;;5060194;28;20045;-68
2022/12/10 09:59:43;;;;;;;68.10;18.17;;;2.30;99.90;;;;;;5068221;28;20068;-69
2022/12/10 10:02:31;;;;;;;83.85;23.48;;;2.20;99.90;;;;;;5033770;28;20384;-68
2022/12/10 10:05:06;;;;;;;60.65;16.65;;;2.20;99.90;;;;;;5054469;28;20033;-68
2022/12/10 10:07:36;;;;;;;94.18;22.08;;;2.30;99.90;;;;;;5047742;28;20041;-68
2022/12/10 10:10:16;;;;;;;60.25;17.40;;;2.40;99.90;;;;;;5053983;28;20036;-68
2022/12/10 10:12:43;;;;;;;75.45;21.77;;;2.30;99.90;;;;;;5045700;28;20025;-68
2022/12/10 10:15:25;;;;;;;84.72;23.33;;;2.40;99.90;;;;;;5053371;28;20051;-69
2022/12/10 10:17:53;;;;;;;66.47;19.88;;;2.30;99.90;;;;;;5049561;28;20095;-68
2022/12/10 10:20:18;;;;;;;72.00;17.27;;;2.40;99.90;;;;;;5054475;28;20032;-68
2022/12/10 10:22:44;;;;;;;83.55;21.58;;;2.50;99.90;;;;;;5046599;28;20389;-71
2022/12/10 10:25:18;;;;;;;70.75;19.00;;;2.60;99.90;;;;;;5053745;28;20041;-68
2022/12/10 10:27:44;;;;;;;80.28;22.63;;;2.70;99.90;;;;;;5035016;28;20033;-70
2022/12/10 10:30:19;;;;;;;63.40;20.77;;;2.80;99.90;;;;;;5053160;28;20040;-70
2022/12/10 10:32:56;;;;;;;77.18;23.70;;;2.70;99.90;;;;;;5041159;28;20078;-69
2022/12/10 10:35:23;;;;;;;83.63;23.15;;;2.70;99.90;;;;;;5052213;28;20589;-69
2022/12/10 10:37:48;;;;;;;56.42;18.08;;;2.70;99.90;;;;;;5059558;28;20079;-70
2022/12/10 10:40:33;;;;;;;62.35;18.35;;;2.70;99.90;;;;;;5035955;28;21365;-71
2022/12/10 10:43:00;;;;;;;104.55;25.10;;;2.70;99.90;;;;;;5056797;28;20115;-68
2022/12/10 10:45:40;;;;;;;92.22;24.35;;;2.70;99.90;;;;;;5039969;28;20028;-68
2022/12/10 10:48:18;;;;;;;62.33;20.52;;;2.80;99.90;;;;;;5053723;28;20131;-70
2022/12/10 10:50:53;;;;;;;70.07;21.40;;;2.90;99.90;;;;;;5026140;28;20040;-68
2022/12/10 10:53:26;;;;;;;74.53;19.25;;;2.90;99.90;;;;;;5065110;28;20032;-67
2022/12/10 10:55:55;;;;;;;108.32;26.67;;;2.80;99.90;;;;;;5056336;28;20083;-70
2022/12/10 10:58:22;;;;;;;72.60;20.13;;;2.90;99.90;;;;;;5036864;28;20040;-68
2022/12/10 11:00:56;;;;;;;99.40;25.20;;;3.00;99.90;;;;;;5052031;28;20025;-68
2022/12/10 11:03:22;;;;;;;79.80;25.05;;;3.00;99.90;;;;;;5057345;28;20029;-67
2022/12/10 11:05:48;;;;;;;90.75;26.40;;;2.90;99.90;;;;;;5057374;28;20092;-69
2022/12/10 11:08:23;;;;;;;90.10;26.48;;;3.00;99.90;;;;;;5034944;28;20057;-68
2022/12/10 11:10:51;;;;;;;53.63;19.23;;;3.10;99.90;;;;;;5051976;28;20028;-69
2022/12/10 11:13:26;;;;;;;70.57;19.35;;;3.10;99.90;;;;;;5051377;28;20032;-70
2022/12/10 11:15:57;;;;;;;86.22;27.70;;;3.00;99.90;;;;;;5040574;28;20045;-68
2022/12/10 11:18:40;;;;;;;91.18;26.30;;;3.00;99.90;;;;;;5050533;28;20037;-70
2022/12/10 11:21:12;;;;;;;77.95;24.20;;;3.10;99.90;;;;;;5033596;28;20022;-70
2022/12/10 11:23:41;;;;;;;94.25;23.25;;;3.20;99.90;;;;;;5035059;28;20389;-68
2022/12/10 11:26:15;;;;;;;57.40;19.70;;;3.20;99.90;;;;;;5051445;28;20064;-68
2022/12/10 11:29:08;;;;;;;74.90;24.17;;;3.10;99.90;;;;;;5051745;28;20032;-68
2022/12/10 11:31:49;;;;;;;70.65;25.73;;;3.10;99.90;;;;;;5035391;28;20103;-70
2022/12/10 11:34:30;;;;;;;76.03;24.90;;;3.20;99.90;;;;;;5052351;28;20037;-70
2022/12/10 11:37:21;;;;;;;69.50;22.53;;;3.30;99.90;;;;;;5046218;28;20541;-70
2022/12/10 11:39:56;;;;;;;49.35;18.90;;;3.20;99.90;;;;;;5042305;28;20036;-71
2022/12/10 11:42:26;;;;;;;62.63;22.42;;;3.20;99.90;;;;;;5060192;28;20036;-71
2022/12/10 11:45:23;;;;;;;75.05;22.75;;;3.10;99.90;;;;;;5058521;28;20029;-71
2022/12/10 11:48:27;;;;;;;47.75;17.85;;;3.10;99.90;;;;;;5068302;28;20025;-69
2022/12/10 11:51:02;;;;;;;46.35;17.77;;;3.00;99.90;;;;;;5063735;28;20517;-70
2022/12/10 11:53:31;;;;;;;47.72;17.08;;;3.00;99.90;;;;;;5067098;28;20107;-70
2022/12/10 11:56:10;;;;;;;67.10;22.45;;;3.00;99.90;;;;;;5043562;28;20047;-70
2022/12/10 11:58:58;;;;;;;77.05;22.83;;;3.10;99.90;;;;;;5051759;28;20029;-70
2022/12/10 12:01:44;;;;;;;76.25;23.73;;;3.10;99.90;;;;;;5047398;28;20024;-71
2022/12/10 12:04:42;;;;;;;76.88;23.55;;;3.20;99.90;;;;;;5054602;28;20044;-69
2022/12/10 12:07:36;;;;;;;57.08;18.30;;;3.20;99.90;;;;;;5059899;28;20547;-68
2022/12/10 12:10:01;;;;;;;43.58;15.88;;;3.20;99.90;;;;;;5044407;28;20034;-67
2022/12/10 12:12:58;;;;;;;94.45;25.80;;;3.10;99.90;;;;;;5044034;28;20040;-67
2022/12/10 12:15:33;;;;;;;61.55;17.20;;;3.00;99.90;;;;;;5038108;28;20044;-69
2022/12/10 12:18:16;;;;;;;58.30;19.05;;;3.00;99.90;;;;;;5041055;28;20034;-67
2022/12/10 12:20:53;;;;;;;71.63;21.48;;;3.00;99.90;;;;;;5047563;28;20461;-70
2022/12/10 12:23:28;;;;;;;71.57;23.88;;;3.00;99.90;;;;;;5046189;28;20068;-68
2022/12/10 12:26:01;;;;;;;63.03;21.08;;;3.10;99.90;;;;;;5052524;28;20045;-71
2022/12/10 12:28:41;;;;;;;61.72;20.40;;;3.30;99.90;;;;;;5038791;28;20021;-71
2022/12/10 12:31:11;;;;;;;62.72;24.35;;;3.30;99.90;;;;;;5051184;28;20047;-70
2022/12/10 12:33:46;;;;;;;60.42;20.08;;;3.30;99.90;;;;;;5033366;28;20034;-70
2022/12/10 12:36:17;;;;;;;66.22;22.25;;;3.30;99.90;;;;;;5040406;28;20037;-69
2022/12/10 12:39:03;;;;;;;66.05;22.42;;;3.30;99.90;;;;;;5034882;28;20032;-69
2022/12/10 12:41:52;;;;;;;71.25;22.65;;;3.40;99.90;;;;;;5032856;28;20431;-69
2022/12/10 12:44:35;;;;;;;63.00;21.35;;;3.40;99.90;;;;;;5056358;28;20025;-68
2022/12/10 12:47:45;;;;;;;77.38;24.63;;;3.40;99.90;;;;;;5056449;28;20045;-72
2022/12/10 12:50:38;;;;;;;89.35;20.20;;;3.50;99.90;;;;;;5039762;28;20043;-70
2022/12/10 12:53:05;;;;;;;;;;;3.50;99.90;;;;;;5055227;28;20044;-71
2022/12/10 12:55:51;;;;;;;68.60;23.85;;;3.50;99.90;;;;;;5066846;28;19939;-68
2022/12/10 12:58:22;;;;;;;69.68;23.05;;;3.60;99.90;;;;;;5044615;28;20162;-70